Time;durP1;ratioP1;P1;durP2;ratioP2;P2;SDS_P1;SDS_P2;PMS_P1;PMS_P2;Temp;Humidity;BMP_temperature;BMP_pressure;BME280_temperature;BME280_humidity;BME280_pressure;Samples;Min_cycle;Max_cycle;Signal;HPM_P1;HPM_P2
2021/01/26 00:00:32;;;;;;;;;;;;;;;21.56;31.05;101453.66;3104554;28;115950;-84
2021/01/26 00:02:04;;;;;;;;;;;;;;;21.55;31.32;101447.19;3103348;27;115956;-82
2021/01/26 00:03:36;;;;;;;;;;;;;;;21.54;31.27;101439.88;3130666;27;114904;-84
2021/01/26 00:05:14;;;;;;;;;;;;;;;21.55;31.39;101450.00;3114802;27;116282;-83
2021/01/26 00:06:45;;;;;;;;;;;;;;;21.54;31.25;101447.47;3105896;27;113753;-84
2021/01/26 00:08:17;;;;;;;;;;;;;;;21.53;31.13;101448.66;3122242;27;113954;-83
2021/01/26 00:09:48;;;;;;;;;;;;;;;21.52;31.61;101453.44;3103150;27;113802;-83
2021/01/26 00:11:26;;;;;;;;;;;;;;;21.51;31.63;101446.13;3102409;27;114099;-81
2021/01/26 00:12:57;;;;;;;;;;;;;;;21.50;31.47;101447.25;3126262;27;113862;-82
2021/01/26 00:14:35;;;;;;;;;;;;;;;21.51;31.27;101451.75;3108522;27;113859;-85
2021/01/26 00:16:06;;;;;;;;;;;;;;;21.49;31.33;101451.19;3131981;27;114141;-83
2021/01/26 00:17:44;;;;;;;;;;;;;;;21.48;31.16;101441.13;3108758;27;113939;-80
2021/01/26 00:19:16;;;;;;;;;;;;;;;21.48;31.13;101446.75;3097906;27;114128;-81
2021/01/26 00:20:49;;;;;;;;;;;;;;;21.47;31.23;101447.03;3102695;27;113919;-85
2021/01/26 00:22:20;;;;;;;;;;;;;;;21.46;31.23;101454.63;3121752;27;114975;-81
2021/01/26 00:23:58;;;;;;;;;;;;;;;21.45;31.22;101452.09;3104062;27;114161;-79
2021/01/26 00:25:30;;;;;;;;;;;;;;;21.43;31.39;101455.25;3122427;27;114071;-81
2021/01/26 00:27:02;;;;;;;;;;;;;;;21.41;31.19;101451.88;3113922;27;114060;-81
2021/01/26 00:28:33;;;;;;;;;;;;;;;21.40;31.48;101458.63;3105726;27;114237;-83
2021/01/26 00:30:16;;;;;;;;;;;;;;;21.40;31.64;101453.00;3105256;27;117145;-82
2021/01/26 00:31:47;;;;;;;;;;;;;;;21.37;31.58;101459.25;3106126;27;114996;-84
2021/01/26 00:33:23;;;;;;;;;;;;;;;21.36;31.76;101453.91;3108411;28;115478;-81
2021/01/26 00:35:00;;;;;;;;;;;;;;;21.33;31.37;101449.75;3106253;28;114179;-84
2021/01/26 00:36:39;;;;;;;;;;;;;;;21.32;31.51;101461.28;3104637;27;114518;-84
2021/01/26 00:38:11;;;;;;;;;;;;;;;21.31;31.44;101460.44;3104897;27;115833;-84
2021/01/26 00:39:42;;;;;;;;;;;;;;;21.29;31.40;101465.56;3105718;28;116727;-83
2021/01/26 00:41:14;;;;;;;;;;;;;;;21.26;31.60;101461.34;3097503;28;114291;-83
2021/01/26 00:42:51;;;;;;;;;;;;;;;21.24;31.25;101462.81;3099746;27;117008;-82
2021/01/26 00:44:23;;;;;;;;;;;;;;;21.23;31.37;101461.97;3105578;28;114431;-83
2021/01/26 00:45:54;;;;;;;;;;;;;;;21.20;31.82;101465.38;3100513;27;116727;-84
2021/01/26 00:47:25;;;;;;;;;;;;;;;21.19;31.53;101460.06;3107218;27;116766;-84
2021/01/26 00:49:09;;;;;;;;;;;;;;;21.16;31.63;101464.31;3110451;27;115270;-82
2021/01/26 00:50:46;;;;;;;;;;;;;;;21.16;31.55;101471.91;3109364;27;114978;-85
2021/01/26 00:52:17;;;;;;;;;;;;;;;21.14;32.07;101474.16;3099933;27;116125;-82
2021/01/26 00:53:48;;;;;;;;;;;;;;;21.13;31.98;101472.47;3125799;27;115254;-85
2021/01/26 00:55:26;;;;;;;;;;;;;;;21.12;31.96;101465.19;3108656;27;115032;-82
2021/01/26 00:56:58;;;;;;;;;;;;;;;21.11;32.04;101461.53;3100316;28;114105;-81
2021/01/26 00:58:29;;;;;;;;;;;;;;;21.06;32.06;101458.78;3104874;27;116827;-81
2021/01/26 01:00:15;;;;;;;;;;;;;;;21.07;32.43;101463.28;3130538;27;117839;-83
2021/01/26 01:01:46;;;;;;;;;;;;;;;21.09;32.20;101460.97;3106659;27;114990;-87
2021/01/26 01:03:18;;;;;;;;;;;;;;;21.05;32.16;101465.53;3096360;27;115783;-80
2021/01/26 01:04:49;;;;;;;;;;;;;;;21.03;32.08;101464.97;3117822;27;117089;-83
2021/01/26 01:06:27;;;;;;;;;;;;;;;21.00;32.06;101468.41;3104798;27;116158;-82
2021/01/26 01:07:59;;;;;;;;;;;;;;;20.99;32.38;101471.50;3105100;27;114947;-81
2021/01/26 01:09:30;;;;;;;;;;;;;;;20.96;32.30;101472.94;3101043;27;115256;-83
2021/01/26 01:11:01;;;;;;;;;;;;;;;20.94;32.49;101463.97;3103640;27;116410;-83
2021/01/26 01:12:39;;;;;;;;;;;;;;;20.92;32.71;101466.25;3132528;27;113657;-85
2021/01/26 01:14:26;;;;;;;;;;;;;;;20.90;32.85;101457.28;3101913;27;113759;-83
2021/01/26 01:16:03;;;;;;;;;;;;;;;20.88;33.00;101467.16;3132922;27;113944;-82
2021/01/26 01:17:41;;;;;;;;;;;;;;;20.85;32.61;101472.22;3101848;27;113778;-86
2021/01/26 01:19:12;;;;;;;;;;;;;;;20.82;32.88;101470.00;3099254;27;114572;-84
2021/01/26 01:20:44;;;;;;;;;;;;;;;20.79;32.79;101469.78;3103733;27;114138;-84
2021/01/26 01:22:21;;;;;;;;;;;;;;;20.77;32.73;101475.69;3103062;27;113947;-84
2021/01/26 01:23:53;;;;;;;;;;;;;;;20.76;32.95;101474.00;3101132;27;113668;-84
2021/01/26 01:25:24;;;;;;;;;;;;;;;20.75;32.91;101468.69;3101845;27;115767;-87
2021/01/26 01:26:55;;;;;;;;;;;;;;;20.72;33.03;101486.13;3104589;28;113779;-84
2021/01/26 01:28:33;;;;;;;;;;;;;;;20.69;32.87;101483.91;3108898;27;117307;-84
2021/01/26 01:30:07;;;;;;;;;;;;;;;20.64;32.84;101490.41;3098398;27;114309;-84
2021/01/26 01:31:38;;;;;;;;;;;;;;;20.65;33.01;101488.44;3096105;28;114146;-87
2021/01/26 01:33:11;;;;;;;;;;;;;;;20.61;33.00;101491.03;3109263;27;114383;-85
2021/01/26 01:34:49;;;;;;;;;;;;;;;20.59;32.94;101496.09;3108343;27;113823;-86
2021/01/26 01:36:21;;;;;;;;;;;;;;;20.57;33.15;101491.91;3104252;27;117181;-85
2021/01/26 01:37:53;;;;;;;;;;;;;;;20.54;33.00;101498.09;3110655;28;115494;-83
2021/01/26 01:39:24;;;;;;;;;;;;;;;20.51;33.27;101488.31;3098997;28;115377;-86
2021/01/26 01:41:07;;;;;;;;;;;;;;;20.49;33.11;101493.38;3095070;28;117587;-87
2021/01/26 01:42:43;;;;;;;;;;;;;;;20.47;33.13;101490.03;3102698;27;113873;-87
2021/01/26 01:44:21;;;;;;;;;;;;;;;20.45;33.06;101491.44;3105920;28;116843;-88
2021/01/26 01:45:53;;;;;;;;;;;;;;;20.40;33.12;101487.56;3104359;28;115735;-84
2021/01/26 01:47:45;;;;;;;;;;;;;;;20.42;33.32;101492.88;3100578;28;114028;-84
2021/01/26 01:49:19;;;;;;;;;;;;;;;20.39;33.10;101493.47;3137794;27;115341;-87
2021/01/26 01:50:51;;;;;;;;;;;;;;;20.35;33.06;101495.19;3110120;27;117115;-86
2021/01/26 01:52:24;;;;;;;;;;;;;;;20.34;33.20;101501.94;3102789;28;115197;-87
2021/01/26 01:54:29;;;;;;;;;;;;;;;20.34;32.97;101499.13;3094799;27;114486;-87
2021/01/26 01:56:05;;;;;;;;;;;;;;;20.31;33.22;101499.69;3131046;27;116936;-85
2021/01/26 01:57:38;;;;;;;;;;;;;;;20.30;33.34;101500.84;3114146;27;114929;-85
2021/01/26 01:59:18;;;;;;;;;;;;;;;20.25;33.04;101495.25;3108364;28;115125;-85
2021/01/26 02:00:58;;;;;;;;;;;;;;;20.22;32.98;101498.63;3098313;27;117255;-81
2021/01/26 02:02:30;;;;;;;;;;;;;;;20.20;33.27;101493.31;3102485;28;117831;-83
2021/01/26 02:04:04;;;;;;;;;;;;;;;20.20;33.07;101490.53;3103167;27;113635;-82
2021/01/26 02:05:42;;;;;;;;;;;;;;;20.17;33.11;101495.88;3108944;28;115891;-84
2021/01/26 02:07:14;;;;;;;;;;;;;;;20.14;33.25;101493.66;3108982;27;116262;-85
2021/01/26 02:08:54;;;;;;;;;;;;;;;20.13;33.18;101498.41;3106654;27;114586;-82
2021/01/26 02:10:32;;;;;;;;;;;;;;;20.11;33.23;101505.47;3099087;28;115076;-82
2021/01/26 02:12:04;;;;;;;;;;;;;;;20.08;33.34;101506.88;3126428;27;115032;-82
2021/01/26 02:13:48;;;;;;;;;;;;;;;20.05;33.14;101507.47;3107986;27;116624;-83
2021/01/26 02:15:26;;;;;;;;;;;;;;;20.04;33.18;101511.38;3113322;27;115099;-85
2021/01/26 02:17:11;;;;;;;;;;;;;;;20.02;33.07;101513.66;3131111;27;117974;-82
2021/01/26 02:18:59;;;;;;;;;;;;;;;20.01;33.36;101511.13;3115308;27;116547;-82
2021/01/26 02:20:52;;;;;;;;;;;;;;;19.99;33.21;101514.22;3119450;27;115168;-81
2021/01/26 02:22:23;;;;;;;;;;;;;;;19.95;33.48;101505.56;3131283;27;113862;-84
2021/01/26 02:23:58;;;;;;;;;;;;;;;19.95;33.23;101511.16;3106076;27;113792;-82
2021/01/26 02:25:32;;;;;;;;;;;;;;;19.92;33.43;101508.13;3101541;28;113630;-85
2021/01/26 02:27:28;;;;;;;;;;;;;;;19.92;33.53;101514.56;3106337;28;113997;-82
2021/01/26 02:29:12;;;;;;;;;;;;;;;19.89;33.44;101517.13;3118049;27;113861;-85
2021/01/26 02:30:52;;;;;;;;;;;;;;;19.86;33.63;101526.09;3111468;27;115700;-84
2021/01/26 02:32:39;;;;;;;;;;;;;;;19.84;33.56;101523.59;3123872;27;114622;-83
2021/01/26 02:34:30;;;;;;;;;;;;;;;19.82;33.79;101517.44;3109388;27;113698;-81
2021/01/26 02:36:06;;;;;;;;;;;;;;;19.80;33.74;101521.66;3109562;27;115009;-86
2021/01/26 02:37:41;;;;;;;;;;;;;;;19.79;33.56;101522.78;3108760;27;113770;-82
2021/01/26 02:39:12;;;;;;;;;;;;;;;19.77;33.75;101520.25;3107339;27;113788;-82
2021/01/26 02:40:58;;;;;;;;;;;;;;;19.76;33.73;101518.56;3110332;28;113875;-82
2021/01/26 02:42:33;;;;;;;;;;;;;;;19.74;33.91;101515.25;3108567;27;113761;-81
2021/01/26 02:44:16;;;;;;;;;;;;;;;19.70;33.89;101516.94;3110548;27;114831;-81
2021/01/26 02:46:05;;;;;;;;;;;;;;;19.70;33.95;101524.53;3105859;27;115413;-82
2021/01/26 02:47:36;;;;;;;;;;;;;;;19.68;34.07;101518.34;3108754;28;115058;-84
2021/01/26 02:49:08;;;;;;;;;;;;;;;19.66;34.20;101515.84;3102166;27;117153;-83
2021/01/26 02:51:07;;;;;;;;;;;;;;;19.66;34.05;101520.63;3116523;27;115431;-81
2021/01/26 02:52:46;;;;;;;;;;;;;;;19.61;34.07;101524.28;3098689;28;114817;-83
2021/01/26 02:54:41;;;;;;;;;;;;;;;19.61;34.18;101518.69;3099942;27;116743;-83
2021/01/26 02:56:40;;;;;;;;;;;;;;;19.60;34.23;101507.75;3092388;27;117454;-85
2021/01/26 02:58:21;;;;;;;;;;;;;;;19.56;34.02;101510.28;3108241;28;117662;-82
2021/01/26 02:59:55;;;;;;;;;;;;;;;19.54;34.02;101509.72;3097963;27;114427;-83
2021/01/26 03:01:37;;;;;;;;;;;;;;;19.53;34.25;101516.50;3112533;27;114477;-85
2021/01/26 03:03:18;;;;;;;;;;;;;;;19.53;34.13;101508.06;3112327;27;113902;-82
2021/01/26 03:04:58;;;;;;;;;;;;;;;19.51;34.14;101513.97;3121301;27;115349;-82
2021/01/26 03:06:31;;;;;;;;;;;;;;;19.47;34.32;101509.22;3098582;27;115842;-83
2021/01/26 03:08:13;;;;;;;;;;;;;;;19.48;34.26;101511.75;3116045;28;114267;-84
2021/01/26 03:09:47;;;;;;;;;;;;;;;19.46;34.37;101507.53;3098589;28;114748;-83
2021/01/26 03:11:33;;;;;;;;;;;;;;;19.44;34.19;101518.22;3135674;27;117542;-80
2021/01/26 03:13:14;;;;;;;;;;;;;;;19.43;34.26;101508.97;3114233;27;114316;-85
2021/01/26 03:15:00;;;;;;;;;;;;;;;19.42;34.10;101509.22;3106129;28;115217;-85
2021/01/26 03:16:33;;;;;;;;;;;;;;;19.42;34.10;101514.81;3109525;28;116092;-85
2021/01/26 03:18:06;;;;;;;;;;;;;;;19.39;34.32;101512.59;3112051;28;115167;-82
2021/01/26 03:19:47;;;;;;;;;;;;;;;19.38;34.28;101510.91;3113222;27;117693;-82
2021/01/26 03:21:20;;;;;;;;;;;;;;;19.34;34.42;101507.84;3115127;27;114964;-82
2021/01/26 03:22:56;;;;;;;;;;;;;;;19.34;34.49;101512.63;3112363;27;116272;-85
2021/01/26 03:24:37;;;;;;;;;;;;;;;19.33;34.38;101516.53;3110963;27;117268;-82
2021/01/26 03:26:10;;;;;;;;;;;;;;;19.33;34.46;101514.56;3109050;27;115904;-81
2021/01/26 03:27:43;;;;;;;;;;;;;;;19.32;34.62;101520.44;3107337;27;118548;-82
2021/01/26 03:29:18;;;;;;;;;;;;;;;19.29;34.44;101521.03;3094252;28;114726;-82
2021/01/26 03:30:57;;;;;;;;;;;;;;;19.28;34.54;101523.00;3099439;28;118005;-84
2021/01/26 03:32:32;;;;;;;;;;;;;;;19.28;34.67;101516.53;3102653;28;117427;-82
2021/01/26 03:34:04;;;;;;;;;;;;;;;19.27;34.73;101517.66;3107984;27;113807;-83
2021/01/26 03:35:35;;;;;;;;;;;;;;;19.26;34.68;101516.00;3104570;27;113678;-86
2021/01/26 03:37:13;;;;;;;;;;;;;;;19.22;35.04;101512.06;3109910;27;114214;-85
2021/01/26 03:38:46;;;;;;;;;;;;;;;19.25;34.99;101522.72;3105729;27;114073;-83
2021/01/26 03:40:18;;;;;;;;;;;;;;;19.20;34.84;101518.00;3101062;27;113719;-83
2021/01/26 03:41:49;;;;;;;;;;;;;;;19.21;34.93;101518.81;3106640;28;116508;-85
2021/01/26 03:43:27;;;;;;;;;;;;;;;19.19;35.02;101529.47;3103390;27;113938;-82
2021/01/26 03:44:58;;;;;;;;;;;;;;;19.18;35.02;101514.63;3102239;28;113746;-85
2021/01/26 03:46:44;;;;;;;;;;;;;;;19.17;35.14;101512.94;3125801;27;113945;-81
2021/01/26 03:48:18;;;;;;;;;;;;;;;19.14;35.13;101512.69;3105028;27;113801;-83
2021/01/26 03:50:05;;;;;;;;;;;;;;;19.15;35.00;101519.97;3104853;27;113832;-83
2021/01/26 03:51:40;;;;;;;;;;;;;;;19.15;34.93;101514.34;3107484;28;113773;-83
2021/01/26 03:53:30;;;;;;;;;;;;;;;19.14;35.02;101505.13;3104082;27;113917;-82
2021/01/26 03:55:15;;;;;;;;;;;;;;;19.13;35.07;101513.78;3109152;27;114928;-81
2021/01/26 03:57:08;;;;;;;;;;;;;;;19.10;35.11;101506.81;3101828;27;117597;-85
2021/01/26 03:58:44;;;;;;;;;;;;;;;19.07;35.22;101511.03;3108984;27;115257;-83
2021/01/26 04:00:34;;;;;;;;;;;;;;;19.05;35.29;101515.22;3104263;27;116112;-85
2021/01/26 04:02:06;;;;;;;;;;;;;;;19.04;35.36;101514.38;3118491;27;114943;-83
2021/01/26 04:03:46;;;;;;;;;;;;;;;19.04;35.49;101525.59;3112183;27;114335;-84
2021/01/26 04:05:20;;;;;;;;;;;;;;;19.02;35.38;101525.06;3109064;27;115246;-82
2021/01/26 04:06:59;;;;;;;;;;;;;;;19.02;35.29;101527.84;3103349;27;114152;-83
2021/01/26 04:08:31;;;;;;;;;;;;;;;19.00;35.62;101532.03;3105845;27;114837;-81
2021/01/26 04:10:34;;;;;;;;;;;;;;;18.98;35.35;101529.53;3108090;28;117149;-84
2021/01/26 04:12:21;;;;;;;;;;;;;;;18.95;35.26;101527.28;3097262;27;117562;-83
2021/01/26 04:13:57;;;;;;;;;;;;;;;18.94;35.68;101528.41;3108637;28;115387;-85
2021/01/26 04:15:48;;;;;;;;;;;;;;;18.94;35.58;101530.41;3110296;27;114889;-84
2021/01/26 04:17:27;;;;;;;;;;;;;;;18.94;35.41;101530.41;3111723;28;114362;-82
2021/01/26 04:19:01;;;;;;;;;;;;;;;18.93;35.39;101529.56;3116369;28;117356;-83
2021/01/26 04:20:36;;;;;;;;;;;;;;;18.93;35.33;101529.56;3113719;27;117043;-83
2021/01/26 04:22:16;;;;;;;;;;;;;;;18.92;35.24;101532.63;3109909;27;118282;-82
2021/01/26 04:23:52;;;;;;;;;;;;;;;18.90;35.28;101535.69;3122929;27;115916;-78
2021/01/26 04:25:26;;;;;;;;;;;;;;;18.90;35.08;101538.50;3107308;27;114951;-83
2021/01/26 04:27:16;;;;;;;;;;;;;;;18.90;35.06;101538.50;3106774;27;118295;-83
2021/01/26 04:28:50;;;;;;;;;;;;;;;18.90;35.19;101534.84;3095343;28;114678;-85
2021/01/26 04:30:28;;;;;;;;;;;;;;;18.88;34.98;101532.34;3109316;27;116211;-86
2021/01/26 04:32:00;;;;;;;;;;;;;;;18.88;34.76;101529.56;3108292;28;116278;-85
2021/01/26 04:33:31;;;;;;;;;;;;;;;18.88;34.79;101532.34;3105906;27;116158;-82
2021/01/26 04:35:03;;;;;;;;;;;;;;;18.89;34.94;101525.66;3112709;27;115847;-81
2021/01/26 04:36:40;;;;;;;;;;;;;;;18.90;35.28;101524.50;3097605;27;117492;-83
2021/01/26 04:38:12;;;;;;;;;;;;;;;18.92;35.11;101527.88;3102909;27;117269;-80
2021/01/26 04:39:43;;;;;;;;;;;;;;;18.96;35.45;101523.38;3111247;27;114657;-83
2021/01/26 04:41:14;;;;;;;;;;;;;;;19.00;35.27;101532.03;3113816;27;116465;-85
2021/01/26 04:42:56;;;;;;;;;;;;;;;19.02;35.27;101527.84;3123404;27;114679;-82
2021/01/26 04:44:34;;;;;;;;;;;;;;;19.06;35.27;101537.34;3106119;27;113906;-83
2021/01/26 04:46:12;;;;;;;;;;;;;;;19.09;35.29;101533.13;3111928;27;113645;-83
2021/01/26 04:48:21;;;;;;;;;;;;;;;19.13;35.55;101531.44;3135426;27;113874;-81
2021/01/26 04:50:18;;;;;;;;;;;;;;;19.18;35.70;101530.59;3060925;28;114907;-83
2021/01/26 04:52:08;;;;;;;;;;;;;;;19.21;35.80;101532.84;3087467;28;114114;-85
2021/01/26 04:53:54;;;;;;;;;;;;;;;19.26;35.92;101521.63;3067968;28;114572;-84
2021/01/26 04:55:31;;;;;;;;;;;;;;;19.30;36.02;101528.31;3090667;28;114372;-85
2021/01/26 04:57:09;;;;;;;;;;;;;;;19.34;35.94;101519.06;3099816;27;119142;-82
2021/01/26 04:58:43;;;;;;;;;;;;;;;19.39;35.71;101521.00;3099040;27;113845;-82
2021/01/26 05:00:14;;;;;;;;;;;;;;;19.44;35.86;101529.41;3130249;27;113755;-84
2021/01/26 05:01:49;;;;;;;;;;;;;;;19.47;35.48;101524.06;3125063;27;113844;-81
2021/01/26 05:03:45;;;;;;;;;;;;;;;19.51;35.58;101513.13;3106969;27;114681;-81
2021/01/26 05:05:18;;;;;;;;;;;;;;;19.57;35.60;101517.59;3106041;27;113738;-84
2021/01/26 05:06:52;;;;;;;;;;;;;;;19.62;35.55;101513.91;3102560;28;113964;-82
2021/01/26 05:08:36;;;;;;;;;;;;;;;19.65;35.27;101514.16;3105064;28;114417;-79
2021/01/26 05:10:26;;;;;;;;;;;;;;;19.71;35.20;101520.59;3094356;27;114304;-81
2021/01/26 05:12:01;;;;;;;;;;;;;;;19.75;34.95;101514.13;3112269;27;114566;-84
2021/01/26 05:13:42;;;;;;;;;;;;;;;19.80;34.92;101528.13;3099499;27;115798;-80
2021/01/26 05:15:36;;;;;;;;;;;;;;;19.84;35.02;101518.00;3097809;27;117067;-85
2021/01/26 05:17:33;;;;;;;;;;;;;;;19.88;34.60;101515.44;3107774;27;113767;-85
2021/01/26 05:19:16;;;;;;;;;;;;;;;19.93;34.49;101518.22;3119813;27;114080;-85
2021/01/26 05:21:02;;;;;;;;;;;;;;;19.98;34.43;101518.19;3107605;27;114430;-87
2021/01/26 05:22:35;;;;;;;;;;;;;;;20.02;34.45;101512.81;3103809;27;114362;-83
2021/01/26 05:24:21;;;;;;;;;;;;;;;20.06;34.35;101511.94;3109850;27;117171;-84
2021/01/26 05:25:53;;;;;;;;;;;;;;;20.10;34.23;101524.25;3102389;27;113967;-83
2021/01/26 05:27:24;;;;;;;;;;;;;;;20.14;34.38;101527.31;3106363;27;115537;-83
2021/01/26 05:28:56;;;;;;;;;;;;;;;20.17;34.23;101516.34;3106827;27;113924;-84
2021/01/26 05:30:37;;;;;;;;;;;;;;;20.20;34.17;101510.16;3111702;27;116754;-87
2021/01/26 05:32:09;;;;;;;;;;;;;;;20.23;34.15;101519.94;3107406;27;115724;-82
2021/01/26 05:33:44;;;;;;;;;;;;;;;20.28;33.96;101522.72;3101187;27;115060;-83
2021/01/26 05:35:16;;;;;;;;;;;;;;;20.31;34.11;101520.19;3105104;28;114620;-86
2021/01/26 05:36:53;;;;;;;;;;;;;;;20.34;33.88;101519.63;3119380;27;116778;-85
2021/01/26 05:38:25;;;;;;;;;;;;;;;20.39;33.97;101521.53;3105084;27;114634;-84
2021/01/26 05:40:05;;;;;;;;;;;;;;;20.40;33.91;101515.63;3102838;27;115051;-79
2021/01/26 05:41:36;;;;;;;;;;;;;;;20.44;33.87;101524.31;3100991;27;115895;-82
2021/01/26 05:43:16;;;;;;;;;;;;;;;20.48;33.94;101516.13;3105037;27;116569;-84
2021/01/26 05:45:09;;;;;;;;;;;;;;;20.50;33.94;101525.94;3104798;27;114462;-82
2021/01/26 05:46:48;;;;;;;;;;;;;;;20.56;34.26;101526.72;3103439;27;116120;-83
2021/01/26 05:48:22;;;;;;;;;;;;;;;20.58;34.21;101528.09;3105753;28;114674;-83
2021/01/26 05:49:55;;;;;;;;;;;;;;;20.61;34.16;101527.53;3108149;27;116028;-85
2021/01/26 05:51:27;;;;;;;;;;;;;;;20.65;33.87;101530.56;3108930;27;115615;-83
2021/01/26 05:53:25;;;;;;;;;;;;;;;20.68;33.69;101527.16;3109628;27;116187;-83
2021/01/26 05:54:58;;;;;;;;;;;;;;;20.71;33.78;101520.97;3102170;27;114050;-84
2021/01/26 05:56:29;;;;;;;;;;;;;;;20.74;33.71;101526.84;3101380;27;113953;-84
2021/01/26 05:58:12;;;;;;;;;;;;;;;20.78;33.63;101535.50;3101793;27;113914;-85
2021/01/26 05:59:50;;;;;;;;;;;;;;;20.79;33.81;101521.16;3108461;27;114244;-83
2021/01/26 06:01:26;;;;;;;;;;;;;;;20.83;33.93;101515.78;3105259;27;113837;-84
2021/01/26 06:03:11;;;;;;;;;;;;;;;20.85;33.56;101522.78;3096927;27;113847;-84
2021/01/26 06:04:44;;;;;;;;;;;;;;;20.86;33.86;101521.63;3098706;27;114320;-83
2021/01/26 06:06:17;;;;;;;;;;;;;;;20.91;33.58;101533.97;3094856;27;113975;-85
2021/01/26 06:08:03;;;;;;;;;;;;;;;20.92;33.75;101525.25;3108215;27;113760;-85
2021/01/26 06:09:42;;;;;;;;;;;;;;;20.96;33.56;101537.56;3105491;27;113965;-83
2021/01/26 06:11:16;;;;;;;;;;;;;;;20.99;33.56;101536.09;3097141;28;114005;-84
2021/01/26 06:12:53;;;;;;;;;;;;;;;21.01;33.53;101534.69;3099723;27;114274;-82
2021/01/26 06:14:24;;;;;;;;;;;;;;;21.03;33.71;101531.59;3098948;27;114962;-83
2021/01/26 06:16:41;;;;;;;;;;;;;;;21.05;33.50;101521.72;3138446;27;114409;-85
2021/01/26 06:18:13;;;;;;;;;;;;;;;21.09;33.62;101525.59;3096968;28;115455;-83
2021/01/26 06:19:44;;;;;;;;;;;;;;;21.12;33.53;101527.81;3110108;27;115984;-87
2021/01/26 06:21:23;;;;;;;;;;;;;;;21.14;33.68;101530.38;3098876;27;114019;-83
2021/01/26 06:22:54;;;;;;;;;;;;;;;21.16;33.32;101525.28;3107466;27;115547;-81
2021/01/26 06:24:27;;;;;;;;;;;;;;;21.19;33.48;101533.13;3101893;28;114974;-84
2021/01/26 06:26:00;;;;;;;;;;;;;;;21.20;33.52;101529.19;3112779;27;116727;-86
2021/01/26 06:27:38;;;;;;;;;;;;;;;21.23;33.09;101531.38;3115027;27;115957;-86
2021/01/26 06:29:45;;;;;;;;;;;;;;;21.24;33.31;101533.06;3109168;27;115018;-85
2021/01/26 06:31:16;;;;;;;;;;;;;;;21.28;33.41;101532.16;3087397;28;115216;-84
2021/01/26 06:33:13;;;;;;;;;;;;;;;21.31;33.60;101533.53;3082597;28;114059;-84
2021/01/26 06:34:47;;;;;;;;;;;;;;;21.33;33.23;101531.25;3095662;27;114735;-86
2021/01/26 06:36:33;;;;;;;;;;;;;;;21.35;33.23;101531.78;3107091;27;115661;-83
2021/01/26 06:38:10;;;;;;;;;;;;;;;21.38;33.61;101531.22;3111873;27;114768;-84
2021/01/26 06:39:50;;;;;;;;;;;;;;;21.40;33.36;101537.34;3112444;27;114287;-85
2021/01/26 06:41:30;;;;;;;;;;;;;;;21.42;33.58;101537.91;3110968;27;114662;-83
2021/01/26 06:43:07;;;;;;;;;;;;;;;21.45;33.13;101533.63;3110825;27;115825;-83
2021/01/26 06:45:03;;;;;;;;;;;;;;;21.47;33.17;101535.03;3132734;27;116122;-84
2021/01/26 06:46:44;;;;;;;;;;;;;;;21.48;33.53;101536.72;3102502;27;114541;-85
2021/01/26 06:48:33;;;;;;;;;;;;;;;21.51;33.51;101535.25;3097781;27;116441;-82
2021/01/26 06:50:30;;;;;;;;;;;;;;;21.52;33.53;101531.31;3135697;27;116683;-87
2021/01/26 06:52:09;;;;;;;;;;;;;;;21.55;33.68;101531.53;3100840;27;114719;-83
2021/01/26 06:53:40;;;;;;;;;;;;;;;21.58;33.63;101533.75;3106599;27;115898;-83
2021/01/26 06:55:21;;;;;;;;;;;;;;;21.59;33.56;101532.63;3109249;27;115364;-86
2021/01/26 06:56:55;;;;;;;;;;;;;;;21.61;33.83;101530.34;3129926;27;114903;-84
2021/01/26 06:58:29;;;;;;;;;;;;;;;21.63;33.81;101530.88;3108414;27;115195;-85
2021/01/26 07:00:19;;;;;;;;;;;;;;;21.65;33.82;101527.75;3112463;27;114877;-86
2021/01/26 07:02:03;;;;;;;;;;;;;;;21.69;33.78;101524.03;3119361;27;115341;-86
2021/01/26 07:03:44;;;;;;;;;;;;;;;21.71;33.87;101520.94;3126507;27;114062;-82
2021/01/26 07:05:18;;;;;;;;;;;;;;;21.72;33.55;101520.63;3120184;27;117750;-86
2021/01/26 07:06:49;;;;;;;;;;;;;;;21.75;33.79;101522.00;3111884;27;113867;-83
2021/01/26 07:08:30;;;;;;;;;;;;;;;21.77;33.53;101524.50;3109067;28;114538;-83
2021/01/26 07:10:08;;;;;;;;;;;;;;;21.79;33.66;101525.88;3099848;27;114050;-85
2021/01/26 07:11:50;;;;;;;;;;;;;;;21.82;33.66;101527.25;3121910;27;113965;-82
2021/01/26 07:13:34;;;;;;;;;;;;;;;21.84;33.38;101533.41;3105077;27;114066;-83
2021/01/26 07:15:36;;;;;;;;;;;;;;;21.87;33.26;101532.78;3116125;27;115414;-82
2021/01/26 07:17:24;;;;;;;;;;;;;;;21.89;33.46;101537.00;3123325;27;114370;-84
2021/01/26 07:19:06;;;;;;;;;;;;;;;21.92;33.12;101527.09;3101537;28;113823;-87
2021/01/26 07:21:07;;;;;;;;;;;;;;;21.94;33.16;101536.13;3104513;28;115245;-84
2021/01/26 07:22:38;;;;;;;;;;;;;;;21.96;33.41;101533.81;3101439;27;113971;-86
2021/01/26 07:24:21;;;;;;;;;;;;;;;21.98;33.49;101531.56;3111269;27;113856;-84
2021/01/26 07:26:04;;;;;;;;;;;;;;;21.98;33.45;101535.22;3104221;27;114706;-84
2021/01/26 07:27:58;;;;;;;;;;;;;;;22.00;33.27;101534.88;3099559;27;114396;-87
2021/01/26 07:29:36;;;;;;;;;;;;;;;22.02;33.63;101532.63;3085662;27;114005;-83
2021/01/26 07:31:18;;;;;;;;;;;;;;;22.02;33.28;101525.00;3109442;27;115220;-86
2021/01/26 07:32:55;;;;;;;;;;;;;;;22.04;33.39;101528.34;3109359;27;115097;-83
2021/01/26 07:34:30;;;;;;;;;;;;;;;22.05;33.30;101537.63;3112665;27;114704;-84
2021/01/26 07:36:01;;;;;;;;;;;;;;;22.06;33.43;101536.50;3093825;28;114355;-83
2021/01/26 07:37:44;;;;;;;;;;;;;;;22.08;33.38;101537.00;3105934;28;117193;-83
2021/01/26 07:39:21;;;;;;;;;;;;;;;22.10;33.27;101541.19;3106676;28;114599;-84
2021/01/26 07:40:58;;;;;;;;;;;;;;;22.11;33.52;101539.22;3133041;27;113971;-86
2021/01/26 07:42:32;;;;;;;;;;;;;;;22.13;33.43;101543.41;3102853;27;115764;-85
2021/01/26 07:44:23;;;;;;;;;;;;;;;22.15;33.17;101548.72;3096584;28;115674;-85
2021/01/26 07:46:00;;;;;;;;;;;;;;;22.16;33.29;101551.25;3098576;28;114146;-82
2021/01/26 07:47:36;;;;;;;;;;;;;;;22.17;33.20;101555.72;3107337;27;114386;-83
2021/01/26 07:49:20;;;;;;;;;;;;;;;22.19;33.21;101561.06;3109190;27;115515;-84
2021/01/26 07:50:59;;;;;;;;;;;;;;;22.21;33.48;101560.75;3112585;27;114171;-83
2021/01/26 07:52:32;;;;;;;;;;;;;;;22.22;33.25;101556.78;3111753;28;115480;-85
2021/01/26 07:54:03;;;;;;;;;;;;;;;22.23;33.38;101562.13;3121946;27;115722;-84
2021/01/26 07:55:39;;;;;;;;;;;;;;;22.25;33.19;101571.09;3115131;27;115881;-85
2021/01/26 07:57:19;;;;;;;;;;;;;;;22.27;33.29;101568.81;3102311;27;115921;-85
2021/01/26 07:58:51;;;;;;;;;;;;;;;22.28;32.98;101564.00;3114409;27;114847;-84
2021/01/26 08:00:24;;;;;;;;;;;;;;;22.30;32.95;101568.22;3114673;27;115943;-83
2021/01/26 08:01:57;;;;;;;;;;;;;;;22.31;33.17;101563.38;3119972;27;118167;-82
2021/01/26 08:03:38;;;;;;;;;;;;;;;22.32;33.23;101567.88;3115212;27;116310;-85
2021/01/26 08:05:16;;;;;;;;;;;;;;;22.34;33.62;101568.44;3114223;27;116154;-83
2021/01/26 08:06:50;;;;;;;;;;;;;;;22.36;33.47;101561.34;3108088;27;114996;-84
2021/01/26 08:08:28;;;;;;;;;;;;;;;22.38;33.70;101561.03;3108108;27;114744;-86
2021/01/26 08:10:01;;;;;;;;;;;;;;;22.41;33.54;101552.81;3099641;27;117907;-83
2021/01/26 08:11:32;;;;;;;;;;;;;;;22.23;33.02;101556.47;3099037;28;114652;-85
2021/01/26 08:13:04;;;;;;;;;;;;;;;22.16;32.28;101559.69;3099191;28;115004;-82
2021/01/26 08:14:50;;;;;;;;;;;;;;;22.11;31.52;101556.97;3109225;28;116735;-87
2021/01/26 08:16:28;;;;;;;;;;;;;;;22.10;31.47;101572.16;3108738;28;119867;-82
2021/01/26 08:18:30;;;;;;;;;;;;;;;22.14;31.55;101569.56;3107599;27;115181;-84
2021/01/26 08:20:27;;;;;;;;;;;;;;;22.14;30.83;101566.75;3100191;27;114348;-84